createdAt,value
2019-05-02T00:03:25.015Z,7.9
2019-05-02T00:08:21.369Z,7.7
2019-05-02T00:13:17.336Z,7.8
2019-05-02T00:18:13.820Z,8.1
2019-05-02T00:23:10.302Z,7.5
2019-05-02T00:28:07.669Z,7.3
2019-05-02T00:33:03.154Z,7.3
2019-05-02T00:38:02.366Z,7.6
2019-05-02T00:42:58.130Z,7.4
2019-05-02T00:47:52.673Z,6.9
2019-05-02T00:52:48.730Z,7.3
2019-05-02T00:57:45.436Z,7.8
2019-05-02T01:02:41.841Z,7.8
2019-05-02T01:07:38.269Z,7.4
2019-05-02T01:12:34.823Z,7.6
2019-05-02T01:17:32.219Z,8
2019-05-02T01:22:27.230Z,7.8
2019-05-02T01:27:23.726Z,8.2
2019-05-02T01:32:19.881Z,8.2
2019-05-02T01:37:20.578Z,8.2
2019-05-02T01:42:12.511Z,8.2
2019-05-02T01:47:09.021Z,7.7
2019-05-02T01:52:05.308Z,8.2
2019-05-02T01:57:03.865Z,8.4
2019-05-02T02:01:59.154Z,8.4
2019-05-02T02:06:54.906Z,7.9
2019-05-02T02:11:51.329Z,7.9
2019-05-02T02:16:47.386Z,8.3
2019-05-02T02:21:43.349Z,8.2
2019-05-02T02:26:39.642Z,8.2
2019-05-02T02:31:39.512Z,7.7
2019-05-02T02:36:34.597Z,7.9
2019-05-02T02:41:28.934Z,7.9
2019-05-02T02:46:30.557Z,8.2
2019-05-02T02:51:24.199Z,7.9
2019-05-02T02:56:18.191Z,7.7
2019-05-02T03:01:14.270Z,7.8
2019-05-02T03:06:10.824Z,7.6
2019-05-02T03:11:07.268Z,7.7
2019-05-02T03:16:06.777Z,7.6
2019-05-02T03:21:00.045Z,8
2019-05-02T03:25:56.691Z,8.1
2019-05-02T03:30:52.792Z,8
2019-05-02T03:35:49.517Z,8
2019-05-02T03:40:45.628Z,8
2019-05-02T03:45:43.052Z,8.1
2019-05-02T03:50:38.119Z,7.8
2019-05-02T03:55:34.525Z,8.1
2019-05-02T04:00:31.125Z,8.2
2019-05-02T04:05:27.250Z,7.8
2019-05-02T04:10:23.956Z,8
2019-05-02T04:15:20.401Z,8.5
2019-05-02T04:20:17.267Z,9.1
2019-05-02T04:25:14.171Z,10.2
2019-05-02T04:30:14.155Z,11.7
2019-05-02T04:35:09.500Z,11
2019-05-02T04:40:11.186Z,12
2019-05-02T04:45:17.261Z,13.7
2019-05-02T04:50:07.442Z,14.8
2019-05-02T04:55:12.949Z,15.2
2019-05-02T05:00:08.330Z,15.3
2019-05-02T05:04:58.184Z,15.8
2019-05-02T05:09:57.785Z,15.4
2019-05-02T05:14:50.999Z,16.5
2019-05-02T05:19:48.843Z,17
2019-05-02T05:24:47.669Z,17.1
2019-05-02T05:29:45.976Z,18.1
2019-05-02T05:34:41.268Z,17.2
2019-05-02T05:39:42.904Z,18.1
2019-05-02T05:44:37.455Z,19.2
2019-05-02T05:49:33.681Z,19.5
2019-05-02T05:54:32.935Z,19.8
2019-05-02T05:59:31.891Z,20.4
2019-05-02T06:04:31.034Z,19.9
2019-05-02T06:09:26.186Z,21.2
2019-05-02T06:14:19.870Z,21.4
2019-05-02T06:19:17.775Z,22.1
2019-05-02T06:24:15.632Z,21.6
2019-05-02T06:29:12.938Z,21.7
2019-05-02T06:34:08.359Z,22.5
2019-05-02T06:39:04.799Z,21.6
2019-05-02T06:44:01.675Z,24.4
2019-05-02T06:48:59.396Z,22.3
2019-05-02T06:53:56.344Z,23
2019-05-02T06:58:52.866Z,19.2
2019-05-02T07:03:48.690Z,23.9
2019-05-02T07:08:45.820Z,23.4
2019-05-02T07:13:43.820Z,22.9
2019-05-02T07:18:41.933Z,24.2
2019-05-02T07:23:38.192Z,24.7
2019-05-02T07:28:35.386Z,22.8
2019-05-02T07:33:32.173Z,22.5
2019-05-02T07:38:28.388Z,23
2019-05-02T07:43:25.555Z,23.2
2019-05-02T07:48:21.790Z,18
2019-05-02T07:53:16.433Z,18.7
2019-05-02T07:58:11.847Z,19.1
2019-05-02T08:03:08.322Z,26.1
2019-05-02T08:08:07.678Z,27.3
2019-05-02T08:13:06.869Z,29.2
2019-05-02T08:18:05.955Z,30.8
2019-05-02T08:23:04.490Z,27.8
2019-05-02T08:28:04.471Z,28
2019-05-02T08:32:59.440Z,24.9
2019-05-02T08:37:55.917Z,25.4
2019-05-02T08:42:50.341Z,27.6
2019-05-02T08:47:46.805Z,26.1
2019-05-02T08:52:44.178Z,20.5
2019-05-02T08:57:38.436Z,23.6
2019-05-02T09:02:41.073Z,20.3
2019-05-02T09:07:36.457Z,20.8
2019-05-02T09:12:27.516Z,23.3
2019-05-02T09:17:34.776Z,30
2019-05-02T09:22:23.094Z,29.4
2019-05-02T09:27:22.401Z,30.1
2019-05-02T09:32:22.577Z,30.8
2019-05-02T09:37:17.809Z,30.4
2019-05-02T09:42:18.728Z,28.7
2019-05-02T09:47:12.862Z,23.6
2019-05-02T09:52:07.236Z,20.2
2019-05-02T09:57:02.611Z,19.8
2019-05-02T10:01:55.190Z,24.7
2019-05-02T10:06:52.552Z,27.4
2019-05-02T10:11:49.342Z,19.9
2019-05-02T10:16:44.618Z,19.6
2019-05-02T10:21:42.009Z,19.4
2019-05-02T10:26:36.916Z,23.6
2019-05-02T10:31:37.555Z,20.7
2019-05-02T10:36:29.944Z,19.6
2019-05-02T10:41:26.389Z,27.1
2019-05-02T10:46:27.707Z,29.4
2019-05-02T10:51:26.137Z,29.9
2019-05-02T10:56:23.311Z,29
2019-05-02T11:01:21.916Z,24.3
2019-05-02T11:06:16.025Z,20.2
2019-05-02T11:11:12.464Z,18.9
2019-05-02T11:16:05.630Z,19.4
2019-05-02T11:21:04.268Z,19.7
2019-05-02T11:25:57.665Z,23.1
2019-05-02T11:30:56.908Z,24.6
2019-05-02T11:35:53.513Z,29.1
2019-05-02T11:40:52.042Z,27.3
2019-05-02T11:45:48.794Z,27.2
2019-05-02T11:50:45.066Z,21.4
2019-05-02T11:55:41.874Z,25.4
2019-05-02T12:00:39.594Z,22.1
2019-05-02T12:05:35.637Z,21.7
2019-05-02T12:10:32.894Z,21.3
2019-05-02T12:15:26.039Z,20.4
2019-05-02T12:20:22.741Z,20.3
2019-05-02T12:25:18.213Z,20.8
2019-05-02T12:30:14.506Z,21.7
2019-05-02T12:35:11.788Z,19.8
2019-05-02T12:40:07.406Z,19.6
2019-05-02T12:45:03.902Z,23.3
2019-05-02T12:50:03.084Z,22.9
2019-05-02T12:54:58.949Z,20.4
2019-05-02T12:59:55.729Z,19.4
2019-05-02T13:04:52.688Z,19.8
2019-05-02T13:09:48.888Z,19.6
2019-05-02T13:14:45.270Z,18.8
2019-05-02T13:19:55.149Z,18
2019-05-02T13:24:38.203Z,20.3
2019-05-02T13:29:35.353Z,19.8
2019-05-02T13:34:32.206Z,19
2019-05-02T13:39:28.973Z,20.3
2019-05-02T13:44:29.005Z,21.7
2019-05-02T13:49:24.662Z,21.7
2019-05-02T13:54:22.383Z,22.9
2019-05-02T13:59:21.865Z,22.3
2019-05-02T14:04:17.142Z,22.4
2019-05-02T14:09:19.800Z,20.5
2019-05-02T14:14:11.729Z,19.9
2019-05-02T14:19:06.663Z,18.5
2019-05-02T14:24:02.449Z,20.9
2019-05-02T14:28:59.333Z,21.6
2019-05-02T14:33:56.455Z,18.7
2019-05-02T14:38:52.535Z,17.4
2019-05-02T14:43:48.529Z,18.6
2019-05-02T14:48:45.378Z,19.1
2019-05-02T14:53:42.974Z,18.7
2019-05-02T14:58:37.969Z,18.6
2019-05-02T15:03:34.364Z,17.3
2019-05-02T15:08:32.219Z,17.4
2019-05-02T15:13:27.161Z,17.5
2019-05-02T15:18:23.448Z,19.1
2019-05-02T15:23:20.249Z,17.6
2019-05-02T15:28:16.918Z,17.2
2019-05-02T15:33:17.011Z,17.5
2019-05-02T15:38:09.853Z,16.4
2019-05-02T15:43:09.384Z,16.7
2019-05-02T15:48:02.769Z,17.4
2019-05-02T15:53:02.639Z,16.3
2019-05-02T15:57:55.926Z,16.5
2019-05-02T16:02:56.199Z,16.3
2019-05-02T16:07:49.057Z,15.7
2019-05-02T16:12:45.476Z,16.1
2019-05-02T16:17:42.290Z,15.2
2019-05-02T16:22:43.037Z,14.9
2019-05-02T16:27:34.813Z,15.3
2019-05-02T16:32:35.614Z,14.8
2019-05-02T16:37:28.125Z,14.3
2019-05-02T16:42:24.702Z,14.3
2019-05-02T16:47:21.936Z,12.9
2019-05-02T16:52:17.457Z,12.8
2019-05-02T16:57:17.280Z,12.9
2019-05-02T17:02:09.651Z,12.2
2019-05-02T17:07:06.192Z,12.6
2019-05-02T17:12:06.454Z,12.5
2019-05-02T17:16:59.009Z,12.1
2019-05-02T17:21:56.494Z,11.5
2019-05-02T17:26:52.146Z,11.5
2019-05-02T17:31:49.939Z,11.2
2019-05-02T17:36:45.811Z,10.8
2019-05-02T17:41:42.161Z,10.4
2019-05-02T17:46:39.253Z,10.4
2019-05-02T17:51:37.501Z,10
2019-05-02T17:56:32.413Z,10.1
2019-05-02T18:01:30.571Z,10
2019-05-02T18:06:32.231Z,9.9
2019-05-02T18:11:19.623Z,9.1
2019-05-02T18:16:16.760Z,9.4
2019-05-02T18:21:12.773Z,9
2019-05-02T18:26:09.018Z,9
2019-05-02T18:31:05.884Z,8.7
2019-05-02T18:36:02.030Z,8.9
2019-05-02T18:41:00.182Z,8.6
2019-05-02T18:45:58.014Z,8.7
2019-05-02T18:50:52.598Z,8.6
2019-05-02T18:55:47.842Z,8.4
2019-05-02T19:00:43.884Z,8.1
2019-05-02T19:05:42.177Z,8.2
2019-05-02T19:10:37.217Z,8
2019-05-02T19:15:34.599Z,7.8
2019-05-02T19:20:32.371Z,7.8
2019-05-02T19:25:26.957Z,7.5
2019-05-02T19:30:26.312Z,7.7
2019-05-02T19:35:21.495Z,7.6
2019-05-02T19:40:20.002Z,7.5
2019-05-02T19:45:16.782Z,7.4
2019-05-02T19:50:09.579Z,7.4
2019-05-02T19:55:06.018Z,7.2
2019-05-02T20:00:06.263Z,7.3
2019-05-02T20:04:59.142Z,7.4
2019-05-02T20:09:55.404Z,7
2019-05-02T20:14:51.886Z,7.2
2019-05-02T20:19:48.439Z,7.1
2019-05-02T20:24:49.130Z,7.1
2019-05-02T20:29:42.613Z,6.8
2019-05-02T20:34:38.054Z,6.4
2019-05-02T20:39:34.442Z,6.9
2019-05-02T20:44:32.063Z,6.9
2019-05-02T20:49:27.598Z,6.9
2019-05-02T20:54:24.172Z,7.1
2019-05-02T20:59:21.812Z,7
2019-05-02T21:04:17.362Z,6.7
2019-05-02T21:09:13.812Z,6.8
2019-05-02T21:14:12.235Z,6.9
2019-05-02T21:19:07.187Z,7
2019-05-02T21:24:03.642Z,6.7
2019-05-02T21:28:59.878Z,6.8
2019-05-02T21:33:56.412Z,6.4
2019-05-02T21:38:53.034Z,6.5
2019-05-02T21:43:49.513Z,6.2
2019-05-02T21:48:46.094Z,6.3
2019-05-02T21:53:49.134Z,6.8
2019-05-02T21:58:39.000Z,6
2019-05-02T22:03:35.515Z,6.1
2019-05-02T22:08:32.289Z,6.5
2019-05-02T22:13:28.271Z,6.3
2019-05-02T22:18:24.893Z,6.2
2019-05-02T22:23:21.430Z,6.7
2019-05-02T22:28:18.012Z,6.4
2019-05-02T22:33:14.390Z,5.7
2019-05-02T22:38:11.694Z,5.7
2019-05-02T22:43:07.392Z,5.6
2019-05-02T22:48:03.613Z,5.4
2019-05-02T22:53:00.164Z,5.3
2019-05-02T22:57:56.737Z,5.5
2019-05-02T23:02:53.438Z,5.5
2019-05-02T23:07:49.535Z,5.4
2019-05-02T23:12:46.147Z,5.1
2019-05-02T23:17:42.861Z,5.1
2019-05-02T23:22:39.323Z,5.3
2019-05-02T23:27:35.679Z,5.4
2019-05-02T23:32:32.242Z,5.2
2019-05-02T23:37:28.223Z,4.6
2019-05-02T23:42:24.652Z,5.1
2019-05-02T23:47:22.419Z,5.1
2019-05-02T23:52:17.247Z,4.9
2019-05-02T23:57:13.502Z,4.9
